sensor_id;sensor_type;location;lat;lon;timestamp;P1;durP1;ratioP1;P2;durP2;ratioP2
7931;SDS011;4011;49.424;10.894;2024-01-07T00:05:19;4.47;;;3.03;;
7931;SDS011;4011;49.424;10.894;2024-01-07T00:10:42;4.22;;;3.00;;
7931;SDS011;4011;49.424;10.894;2024-01-07T00:16:03;4.00;;;3.13;;
7931;SDS011;4011;49.424;10.894;2024-01-07T00:21:25;4.35;;;2.80;;
7931;SDS011;4011;49.424;10.894;2024-01-07T00:26:47;4.57;;;2.50;;
7931;SDS011;4011;49.424;10.894;2024-01-07T00:32:09;3.38;;;2.60;;
7931;SDS011;4011;49.424;10.894;2024-01-07T00:37:30;3.50;;;2.53;;
7931;SDS011;4011;49.424;10.894;2024-01-07T00:42:55;4.00;;;2.63;;
7931;SDS011;4011;49.424;10.894;2024-01-07T00:48:16;4.13;;;3.00;;
7931;SDS011;4011;49.424;10.894;2024-01-07T00:53:37;3.88;;;2.60;;
7931;SDS011;4011;49.424;10.894;2024-01-07T00:59:00;3.92;;;2.92;;
7931;SDS011;4011;49.424;10.894;2024-01-07T01:04:22;4.00;;;2.63;;
7931;SDS011;4011;49.424;10.894;2024-01-07T01:09:43;3.63;;;2.63;;
7931;SDS011;4011;49.424;10.894;2024-01-07T01:15:06;4.30;;;2.90;;
7931;SDS011;4011;49.424;10.894;2024-01-07T01:20:27;4.25;;;2.70;;
7931;SDS011;4011;49.424;10.894;2024-01-07T01:25:49;4.05;;;2.70;;
7931;SDS011;4011;49.424;10.894;2024-01-07T01:31:13;3.42;;;2.25;;
7931;SDS011;4011;49.424;10.894;2024-01-07T01:36:35;4.35;;;2.90;;
7931;SDS011;4011;49.424;10.894;2024-01-07T01:41:56;4.30;;;2.92;;
7931;SDS011;4011;49.424;10.894;2024-01-07T01:47:19;4.18;;;2.80;;
7931;SDS011;4011;49.424;10.894;2024-01-07T01:52:40;5.05;;;3.00;;
7931;SDS011;4011;49.424;10.894;2024-01-07T01:58:02;4.30;;;2.60;;
7931;SDS011;4011;49.424;10.894;2024-01-07T02:03:26;3.90;;;2.58;;
7931;SDS011;4011;49.424;10.894;2024-01-07T02:08:47;4.32;;;2.80;;
7931;SDS011;4011;49.424;10.894;2024-01-07T02:14:09;3.97;;;2.58;;
7931;SDS011;4011;49.424;10.894;2024-01-07T02:19:32;4.05;;;2.85;;
7931;SDS011;4011;49.424;10.894;2024-01-07T02:24:55;3.67;;;2.50;;
7931;SDS011;4011;49.424;10.894;2024-01-07T02:30:16;4.00;;;2.50;;
7931;SDS011;4011;49.424;10.894;2024-01-07T02:35:38;3.60;;;2.33;;
7931;SDS011;4011;49.424;10.894;2024-01-07T02:41:00;3.85;;;2.70;;
7931;SDS011;4011;49.424;10.894;2024-01-07T02:46:23;4.00;;;2.65;;
7931;SDS011;4011;49.424;10.894;2024-01-07T02:51:45;3.65;;;2.60;;
7931;SDS011;4011;49.424;10.894;2024-01-07T02:57:10;3.75;;;2.70;;
7931;SDS011;4011;49.424;10.894;2024-01-07T03:02:32;3.58;;;2.40;;
7931;SDS011;4011;49.424;10.894;2024-01-07T03:07:53;3.85;;;2.38;;
7931;SDS011;4011;49.424;10.894;2024-01-07T03:13:16;3.20;;;2.30;;
7931;SDS011;4011;49.424;10.894;2024-01-07T03:18:37;3.30;;;2.50;;
7931;SDS011;4011;49.424;10.894;2024-01-07T03:23:58;4.65;;;2.78;;
7931;SDS011;4011;49.424;10.894;2024-01-07T03:29:21;4.20;;;2.60;;
7931;SDS011;4011;49.424;10.894;2024-01-07T03:34:42;4.10;;;2.47;;
7931;SDS011;4011;49.424;10.894;2024-01-07T03:40:07;3.65;;;2.70;;
7931;SDS011;4011;49.424;10.894;2024-01-07T03:45:31;3.85;;;2.70;;
7931;SDS011;4011;49.424;10.894;2024-01-07T03:50:52;3.40;;;2.60;;
7931;SDS011;4011;49.424;10.894;2024-01-07T03:56:14;3.53;;;2.40;;
7931;SDS011;4011;49.424;10.894;2024-01-07T04:01:37;3.60;;;2.30;;
7931;SDS011;4011;49.424;10.894;2024-01-07T04:06:58;4.47;;;2.70;;
7931;SDS011;4011;49.424;10.894;2024-01-07T04:12:20;3.20;;;2.30;;
7931;SDS011;4011;49.424;10.894;2024-01-07T04:17:42;3.58;;;2.58;;
7931;SDS011;4011;49.424;10.894;2024-01-07T04:23:04;3.55;;;2.53;;
7931;SDS011;4011;49.424;10.894;2024-01-07T04:28:25;4.07;;;2.58;;
7931;SDS011;4011;49.424;10.894;2024-01-07T04:33:48;3.60;;;2.53;;
7931;SDS011;4011;49.424;10.894;2024-01-07T04:39:09;3.63;;;2.45;;
7931;SDS011;4011;49.424;10.894;2024-01-07T04:44:31;3.40;;;2.40;;
7931;SDS011;4011;49.424;10.894;2024-01-07T04:49:53;3.30;;;2.28;;
7931;SDS011;4011;49.424;10.894;2024-01-07T04:55:15;3.97;;;2.65;;
7931;SDS011;4011;49.424;10.894;2024-01-07T05:00:36;3.88;;;2.72;;
7931;SDS011;4011;49.424;10.894;2024-01-07T05:05:59;3.33;;;2.30;;
7931;SDS011;4011;49.424;10.894;2024-01-07T05:11:20;3.42;;;2.30;;
7931;SDS011;4011;49.424;10.894;2024-01-07T05:16:42;4.20;;;2.85;;
7931;SDS011;4011;49.424;10.894;2024-01-07T05:22:04;3.78;;;2.80;;
7931;SDS011;4011;49.424;10.894;2024-01-07T05:27:27;3.72;;;2.60;;
7931;SDS011;4011;49.424;10.894;2024-01-07T05:32:48;3.85;;;2.60;;
7931;SDS011;4011;49.424;10.894;2024-01-07T05:38:11;3.90;;;2.65;;
7931;SDS011;4011;49.424;10.894;2024-01-07T05:43:32;4.05;;;2.78;;
7931;SDS011;4011;49.424;10.894;2024-01-07T05:48:53;4.38;;;2.58;;
7931;SDS011;4011;49.424;10.894;2024-01-07T05:54:17;4.07;;;2.72;;
7931;SDS011;4011;49.424;10.894;2024-01-07T05:59:38;28.10;;;9.43;;
7931;SDS011;4011;49.424;10.894;2024-01-07T06:05:03;30.77;;;9.45;;
7931;SDS011;4011;49.424;10.894;2024-01-07T06:10:28;26.88;;;8.13;;
7931;SDS011;4011;49.424;10.894;2024-01-07T06:15:49;28.92;;;7.97;;
7931;SDS011;4011;49.424;10.894;2024-01-07T06:21:10;23.58;;;6.90;;
7931;SDS011;4011;49.424;10.894;2024-01-07T06:26:33;22.38;;;7.60;;
7931;SDS011;4011;49.424;10.894;2024-01-07T06:31:54;14.40;;;5.88;;
7931;SDS011;4011;49.424;10.894;2024-01-07T06:37:15;18.13;;;6.03;;
7931;SDS011;4011;49.424;10.894;2024-01-07T06:42:38;16.45;;;5.28;;
7931;SDS011;4011;49.424;10.894;2024-01-07T06:47:59;14.00;;;5.13;;
7931;SDS011;4011;49.424;10.894;2024-01-07T06:53:21;13.25;;;5.18;;
7931;SDS011;4011;49.424;10.894;2024-01-07T06:58:44;11.23;;;5.03;;
7931;SDS011;4011;49.424;10.894;2024-01-07T07:04:05;8.00;;;4.30;;
7931;SDS011;4011;49.424;10.894;2024-01-07T07:09:27;10.43;;;4.43;;
7931;SDS011;4011;49.424;10.894;2024-01-07T07:14:49;8.70;;;3.78;;
7931;SDS011;4011;49.424;10.894;2024-01-07T07:20:11;8.10;;;3.78;;
7931;SDS011;4011;49.424;10.894;2024-01-07T07:25:32;7.55;;;3.85;;
7931;SDS011;4011;49.424;10.894;2024-01-07T07:30:55;7.18;;;3.70;;
7931;SDS011;4011;49.424;10.894;2024-01-07T07:36:16;7.15;;;3.47;;
7931;SDS011;4011;49.424;10.894;2024-01-07T07:41:38;7.03;;;3.42;;
7931;SDS011;4011;49.424;10.894;2024-01-07T07:47:01;7.75;;;3.42;;
7931;SDS011;4011;49.424;10.894;2024-01-07T07:52:22;6.43;;;3.28;;
7931;SDS011;4011;49.424;10.894;2024-01-07T07:57:45;5.10;;;3.30;;
7931;SDS011;4011;49.424;10.894;2024-01-07T08:03:09;6.32;;;3.22;;
7931;SDS011;4011;49.424;10.894;2024-01-07T08:08:30;5.97;;;3.20;;
7931;SDS011;4011;49.424;10.894;2024-01-07T08:13:52;5.68;;;3.15;;
7931;SDS011;4011;49.424;10.894;2024-01-07T08:19:15;4.85;;;3.25;;
7931;SDS011;4011;49.424;10.894;2024-01-07T08:24:36;6.20;;;3.92;;
7931;SDS011;4011;49.424;10.894;2024-01-07T08:29:57;6.78;;;4.47;;
7931;SDS011;4011;49.424;10.894;2024-01-07T08:35:20;7.38;;;4.28;;
7931;SDS011;4011;49.424;10.894;2024-01-07T08:40:42;6.63;;;4.20;;
7931;SDS011;4011;49.424;10.894;2024-01-07T08:46:03;7.07;;;4.90;;
7931;SDS011;4011;49.424;10.894;2024-01-07T08:51:27;7.78;;;4.60;;
7931;SDS011;4011;49.424;10.894;2024-01-07T08:56:49;5.95;;;3.97;;
7931;SDS011;4011;49.424;10.894;2024-01-07T09:02:10;7.18;;;4.32;;
7931;SDS011;4011;49.424;10.894;2024-01-07T09:07:33;6.70;;;4.70;;
7931;SDS011;4011;49.424;10.894;2024-01-07T09:12:54;6.57;;;4.50;;
7931;SDS011;4011;49.424;10.894;2024-01-07T09:18:15;7.20;;;4.43;;
7931;SDS011;4011;49.424;10.894;2024-01-07T09:23:39;6.05;;;4.07;;
7931;SDS011;4011;49.424;10.894;2024-01-07T09:29:00;5.88;;;4.28;;
7931;SDS011;4011;49.424;10.894;2024-01-07T09:34:22;5.80;;;3.90;;
7931;SDS011;4011;49.424;10.894;2024-01-07T09:39:45;5.68;;;3.78;;
7931;SDS011;4011;49.424;10.894;2024-01-07T09:45:07;5.15;;;4.05;;
7931;SDS011;4011;49.424;10.894;2024-01-07T09:50:28;5.57;;;3.63;;
7931;SDS011;4011;49.424;10.894;2024-01-07T09:55:53;6.35;;;4.30;;
7931;SDS011;4011;49.424;10.894;2024-01-07T10:01:18;5.80;;;3.72;;
7931;SDS011;4011;49.424;10.894;2024-01-07T10:06:39;5.72;;;3.92;;
7931;SDS011;4011;49.424;10.894;2024-01-07T10:12:02;6.10;;;4.13;;
7931;SDS011;4011;49.424;10.894;2024-01-07T10:17:23;5.53;;;3.85;;
7931;SDS011;4011;49.424;10.894;2024-01-07T10:22:49;5.07;;;3.63;;
7931;SDS011;4011;49.424;10.894;2024-01-07T10:28:12;6.55;;;4.00;;
7931;SDS011;4011;49.424;10.894;2024-01-07T10:33:34;5.72;;;4.00;;
7931;SDS011;4011;49.424;10.894;2024-01-07T10:38:55;6.10;;;4.07;;
7931;SDS011;4011;49.424;10.894;2024-01-07T10:44:18;5.78;;;4.05;;
7931;SDS011;4011;49.424;10.894;2024-01-07T10:49:40;5.43;;;4.00;;
7931;SDS011;4011;49.424;10.894;2024-01-07T10:55:07;5.32;;;3.50;;
7931;SDS011;4011;49.424;10.894;2024-01-07T11:00:31;5.60;;;3.50;;
7931;SDS011;4011;49.424;10.894;2024-01-07T11:05:54;5.85;;;3.85;;
7931;SDS011;4011;49.424;10.894;2024-01-07T11:11:17;5.95;;;4.30;;
7931;SDS011;4011;49.424;10.894;2024-01-07T11:16:42;5.68;;;3.72;;
7931;SDS011;4011;49.424;10.894;2024-01-07T11:22:23;6.57;;;3.75;;
7931;SDS011;4011;49.424;10.894;2024-01-07T11:27:48;5.45;;;3.60;;
7931;SDS011;4011;49.424;10.894;2024-01-07T11:33:12;5.80;;;3.88;;
7931;SDS011;4011;49.424;10.894;2024-01-07T11:38:35;5.45;;;3.70;;
7931;SDS011;4011;49.424;10.894;2024-01-07T11:43:57;6.25;;;4.28;;
7931;SDS011;4011;49.424;10.894;2024-01-07T11:49:21;6.22;;;4.10;;
7931;SDS011;4011;49.424;10.894;2024-01-07T11:54:42;6.10;;;3.90;;
7931;SDS011;4011;49.424;10.894;2024-01-07T12:00:04;5.55;;;3.92;;
7931;SDS011;4011;49.424;10.894;2024-01-07T12:05:28;6.60;;;4.53;;
7931;SDS011;4011;49.424;10.894;2024-01-07T12:10:49;5.95;;;4.10;;
7931;SDS011;4011;49.424;10.894;2024-01-07T12:16:10;5.30;;;3.80;;
7931;SDS011;4011;49.424;10.894;2024-01-07T12:21:34;6.00;;;4.00;;
7931;SDS011;4011;49.424;10.894;2024-01-07T12:26:55;5.55;;;3.55;;
7931;SDS011;4011;49.424;10.894;2024-01-07T12:32:17;6.97;;;4.40;;
7931;SDS011;4011;49.424;10.894;2024-01-07T12:37:40;5.18;;;3.90;;
7931;SDS011;4011;49.424;10.894;2024-01-07T12:43:01;4.60;;;3.30;;
7931;SDS011;4011;49.424;10.894;2024-01-07T12:48:23;6.00;;;4.03;;
7931;SDS011;4011;49.424;10.894;2024-01-07T12:53:45;5.75;;;4.00;;
7931;SDS011;4011;49.424;10.894;2024-01-07T12:59:07;6.80;;;4.43;;
7931;SDS011;4011;49.424;10.894;2024-01-07T13:04:28;6.00;;;4.00;;
7931;SDS011;4011;49.424;10.894;2024-01-07T13:09:51;6.78;;;4.03;;
7931;SDS011;4011;49.424;10.894;2024-01-07T13:15:13;5.88;;;4.10;;
7931;SDS011;4011;49.424;10.894;2024-01-07T13:20:34;6.05;;;3.80;;
7931;SDS011;4011;49.424;10.894;2024-01-07T13:25:57;5.55;;;4.28;;
7931;SDS011;4011;49.424;10.894;2024-01-07T13:31:18;6.53;;;3.92;;
7931;SDS011;4011;49.424;10.894;2024-01-07T13:36:40;6.18;;;4.15;;
7931;SDS011;4011;49.424;10.894;2024-01-07T13:42:03;7.40;;;4.03;;
7931;SDS011;4011;49.424;10.894;2024-01-07T13:47:25;6.05;;;3.92;;
7931;SDS011;4011;49.424;10.894;2024-01-07T13:52:46;6.25;;;3.80;;
7931;SDS011;4011;49.424;10.894;2024-01-07T13:58:09;6.47;;;4.00;;
7931;SDS011;4011;49.424;10.894;2024-01-07T14:03:30;5.63;;;3.90;;
7931;SDS011;4011;49.424;10.894;2024-01-07T14:08:52;6.40;;;3.88;;
7931;SDS011;4011;49.424;10.894;2024-01-07T14:14:15;5.13;;;3.35;;
7931;SDS011;4011;49.424;10.894;2024-01-07T14:19:39;5.90;;;3.97;;
7931;SDS011;4011;49.424;10.894;2024-01-07T14:25:02;5.60;;;3.40;;
7931;SDS011;4011;49.424;10.894;2024-01-07T14:30:25;6.20;;;3.92;;
7931;SDS011;4011;49.424;10.894;2024-01-07T14:35:48;6.15;;;3.67;;
7931;SDS011;4011;49.424;10.894;2024-01-07T14:41:09;5.25;;;3.75;;
7931;SDS011;4011;49.424;10.894;2024-01-07T14:46:31;6.38;;;3.83;;
7931;SDS011;4011;49.424;10.894;2024-01-07T14:51:53;5.20;;;3.60;;
7931;SDS011;4011;49.424;10.894;2024-01-07T14:57:14;5.25;;;3.70;;
7931;SDS011;4011;49.424;10.894;2024-01-07T15:02:37;4.90;;;3.60;;
7931;SDS011;4011;49.424;10.894;2024-01-07T15:07:59;5.63;;;3.75;;
7931;SDS011;4011;49.424;10.894;2024-01-07T15:13:20;5.20;;;3.45;;
7931;SDS011;4011;49.424;10.894;2024-01-07T15:18:44;5.18;;;3.20;;
7931;SDS011;4011;49.424;10.894;2024-01-07T15:24:05;5.70;;;3.47;;
7931;SDS011;4011;49.424;10.894;2024-01-07T15:29:27;4.63;;;3.60;;
7931;SDS011;4011;49.424;10.894;2024-01-07T15:34:50;40.17;;;11.10;;
7931;SDS011;4011;49.424;10.894;2024-01-07T15:40:11;34.67;;;10.23;;
7931;SDS011;4011;49.424;10.894;2024-01-07T15:45:34;29.83;;;9.52;;
7931;SDS011;4011;49.424;10.894;2024-01-07T15:50:58;21.70;;;8.88;;
7931;SDS011;4011;49.424;10.894;2024-01-07T15:56:19;22.02;;;7.32;;
7931;SDS011;4011;49.424;10.894;2024-01-07T16:01:45;19.50;;;6.60;;
7931;SDS011;4011;49.424;10.894;2024-01-07T16:07:08;13.35;;;5.40;;
7931;SDS011;4011;49.424;10.894;2024-01-07T16:12:29;12.73;;;5.05;;
7931;SDS011;4011;49.424;10.894;2024-01-07T16:17:50;10.45;;;4.53;;
7931;SDS011;4011;49.424;10.894;2024-01-07T16:23:13;23.13;;;7.50;;
7931;SDS011;4011;49.424;10.894;2024-01-07T16:28:35;20.88;;;7.88;;
7931;SDS011;4011;49.424;10.894;2024-01-07T16:33:56;18.67;;;6.32;;
7931;SDS011;4011;49.424;10.894;2024-01-07T16:39:19;15.98;;;5.97;;
7931;SDS011;4011;49.424;10.894;2024-01-07T16:44:41;15.70;;;5.97;;
7931;SDS011;4011;49.424;10.894;2024-01-07T16:50:02;15.43;;;6.38;;
7931;SDS011;4011;49.424;10.894;2024-01-07T16:55:26;10.13;;;5.13;;
7931;SDS011;4011;49.424;10.894;2024-01-07T17:00:48;11.13;;;5.13;;
7931;SDS011;4011;49.424;10.894;2024-01-07T17:06:10;12.10;;;5.00;;
7931;SDS011;4011;49.424;10.894;2024-01-07T17:11:33;8.13;;;4.25;;
7931;SDS011;4011;49.424;10.894;2024-01-07T17:16:54;7.00;;;3.47;;
7931;SDS011;4011;49.424;10.894;2024-01-07T17:22:15;9.25;;;4.05;;
7931;SDS011;4011;49.424;10.894;2024-01-07T17:27:38;21.55;;;6.28;;
7931;SDS011;4011;49.424;10.894;2024-01-07T17:33:05;15.82;;;6.07;;
7931;SDS011;4011;49.424;10.894;2024-01-07T17:38:28;13.32;;;5.03;;
7931;SDS011;4011;49.424;10.894;2024-01-07T17:43:51;13.88;;;4.53;;
7931;SDS011;4011;49.424;10.894;2024-01-07T17:49:13;11.60;;;4.70;;
7931;SDS011;4011;49.424;10.894;2024-01-07T17:54:35;9.98;;;4.47;;
7931;SDS011;4011;49.424;10.894;2024-01-07T17:59:59;7.82;;;4.22;;
7931;SDS011;4011;49.424;10.894;2024-01-07T18:05:21;9.48;;;4.20;;
7931;SDS011;4011;49.424;10.894;2024-01-07T18:10:42;8.20;;;4.03;;
7931;SDS011;4011;49.424;10.894;2024-01-07T18:16:06;8.70;;;4.07;;
7931;SDS011;4011;49.424;10.894;2024-01-07T18:21:29;8.65;;;3.95;;
7931;SDS011;4011;49.424;10.894;2024-01-07T18:26:51;6.55;;;3.13;;
7931;SDS011;4011;49.424;10.894;2024-01-07T18:32:17;7.40;;;3.45;;
7931;SDS011;4011;49.424;10.894;2024-01-07T18:37:38;5.57;;;3.13;;
7931;SDS011;4011;49.424;10.894;2024-01-07T18:43:01;6.53;;;3.15;;
7931;SDS011;4011;49.424;10.894;2024-01-07T18:48:26;5.90;;;3.28;;
7931;SDS011;4011;49.424;10.894;2024-01-07T18:53:47;4.75;;;2.60;;
7931;SDS011;4011;49.424;10.894;2024-01-07T18:59:09;5.03;;;2.70;;
7931;SDS011;4011;49.424;10.894;2024-01-07T19:04:32;5.07;;;2.80;;
7931;SDS011;4011;49.424;10.894;2024-01-07T19:09:53;4.45;;;2.60;;
7931;SDS011;4011;49.424;10.894;2024-01-07T19:15:14;4.32;;;2.70;;
7931;SDS011;4011;49.424;10.894;2024-01-07T19:20:38;4.40;;;2.45;;
7931;SDS011;4011;49.424;10.894;2024-01-07T19:26:01;4.15;;;2.50;;
7931;SDS011;4011;49.424;10.894;2024-01-07T19:31:23;5.32;;;2.40;;
7931;SDS011;4011;49.424;10.894;2024-01-07T19:36:48;4.03;;;2.28;;
7931;SDS011;4011;49.424;10.894;2024-01-07T19:42:09;3.63;;;2.00;;
7931;SDS011;4011;49.424;10.894;2024-01-07T19:47:33;3.53;;;2.20;;
7931;SDS011;4011;49.424;10.894;2024-01-07T19:52:55;3.45;;;2.40;;
7931;SDS011;4011;49.424;10.894;2024-01-07T19:58:17;3.30;;;2.20;;
7931;SDS011;4011;49.424;10.894;2024-01-07T20:03:39;3.50;;;2.08;;
7931;SDS011;4011;49.424;10.894;2024-01-07T20:09:02;3.25;;;2.20;;
7931;SDS011;4011;49.424;10.894;2024-01-07T20:14:24;3.63;;;2.05;;
7931;SDS011;4011;49.424;10.894;2024-01-07T20:19:45;2.88;;;1.90;;
7931;SDS011;4011;49.424;10.894;2024-01-07T20:25:08;3.63;;;2.00;;
7931;SDS011;4011;49.424;10.894;2024-01-07T20:30:31;2.72;;;1.90;;
7931;SDS011;4011;49.424;10.894;2024-01-07T20:35:52;3.40;;;2.17;;
7931;SDS011;4011;49.424;10.894;2024-01-07T20:41:18;3.50;;;2.30;;
7931;SDS011;4011;49.424;10.894;2024-01-07T20:46:39;3.00;;;1.80;;
7931;SDS011;4011;49.424;10.894;2024-01-07T20:52:01;3.40;;;1.73;;
7931;SDS011;4011;49.424;10.894;2024-01-07T20:57:24;3.45;;;1.90;;
7931;SDS011;4011;49.424;10.894;2024-01-07T21:02:45;2.88;;;1.92;;
7931;SDS011;4011;49.424;10.894;2024-01-07T21:08:07;3.28;;;2.10;;
7931;SDS011;4011;49.424;10.894;2024-01-07T21:13:29;2.83;;;1.73;;
7931;SDS011;4011;49.424;10.894;2024-01-07T21:18:51;3.55;;;1.98;;
7931;SDS011;4011;49.424;10.894;2024-01-07T21:24:12;3.13;;;1.80;;
7931;SDS011;4011;49.424;10.894;2024-01-07T21:29:35;9.77;;;3.58;;
7931;SDS011;4011;49.424;10.894;2024-01-07T21:34:57;6.13;;;2.55;;
7931;SDS011;4011;49.424;10.894;2024-01-07T21:40:19;4.72;;;2.10;;
7931;SDS011;4011;49.424;10.894;2024-01-07T21:45:41;3.90;;;2.10;;
7931;SDS011;4011;49.424;10.894;2024-01-07T21:51:03;5.68;;;1.98;;
7931;SDS011;4011;49.424;10.894;2024-01-07T21:56:25;6.15;;;2.30;;
7931;SDS011;4011;49.424;10.894;2024-01-07T22:01:48;3.92;;;2.10;;
7931;SDS011;4011;49.424;10.894;2024-01-07T22:07:10;3.33;;;1.90;;
7931;SDS011;4011;49.424;10.894;2024-01-07T22:12:32;3.28;;;1.90;;
7931;SDS011;4011;49.424;10.894;2024-01-07T22:17:54;3.05;;;1.80;;
7931;SDS011;4011;49.424;10.894;2024-01-07T22:23:16;3.05;;;1.75;;
7931;SDS011;4011;49.424;10.894;2024-01-07T22:28:37;3.50;;;1.80;;
7931;SDS011;4011;49.424;10.894;2024-01-07T22:34:00;3.17;;;1.90;;
7931;SDS011;4011;49.424;10.894;2024-01-07T22:39:22;3.47;;;1.80;;
7931;SDS011;4011;49.424;10.894;2024-01-07T22:44:44;2.42;;;1.73;;
7931;SDS011;4011;49.424;10.894;2024-01-07T22:50:07;3.60;;;1.70;;
7931;SDS011;4011;49.424;10.894;2024-01-07T22:55:29;3.20;;;1.95;;
7931;SDS011;4011;49.424;10.894;2024-01-07T23:00:50;3.45;;;1.90;;
7931;SDS011;4011;49.424;10.894;2024-01-07T23:06:13;3.13;;;1.88;;
7931;SDS011;4011;49.424;10.894;2024-01-07T23:11:35;2.92;;;1.80;;
7931;SDS011;4011;49.424;10.894;2024-01-07T23:16:57;3.83;;;2.45;;
7931;SDS011;4011;49.424;10.894;2024-01-07T23:22:20;3.05;;;1.90;;
7931;SDS011;4011;49.424;10.894;2024-01-07T23:27:42;3.53;;;2.10;;
7931;SDS011;4011;49.424;10.894;2024-01-07T23:33:04;2.85;;;1.77;;
7931;SDS011;4011;49.424;10.894;2024-01-07T23:38:27;3.13;;;1.90;;
7931;SDS011;4011;49.424;10.894;2024-01-07T23:43:48;3.00;;;1.70;;
7931;SDS011;4011;49.424;10.894;2024-01-07T23:49:10;2.90;;;1.80;;
7931;SDS011;4011;49.424;10.894;2024-01-07T23:54:33;2.92;;;1.77;;
7931;SDS011;4011;49.424;10.894;2024-01-07T23:59:55;3.20;;;1.90;;
